createdAt,value
2022-12-23T00:02:11.441Z,-0.31
2022-12-23T00:07:09.365Z,-0.29
2022-12-23T00:12:24.784Z,-0.19
2022-12-23T00:17:24.366Z,0.00
2022-12-23T00:22:42.312Z,0.05
2022-12-23T00:27:40.556Z,0.13
2022-12-23T00:32:42.367Z,0.18
2022-12-23T00:37:40.376Z,0.19
2022-12-23T00:42:56.716Z,0.15
2022-12-23T00:48:13.661Z,0.30
2022-12-23T00:53:12.074Z,0.49
2022-12-23T00:58:12.265Z,0.38
2022-12-23T01:03:31.754Z,0.48
2022-12-23T01:08:30.642Z,0.50
2022-12-23T01:13:28.521Z,0.50
2022-12-23T01:18:28.534Z,0.53
2022-12-23T01:23:26.491Z,0.48
2022-12-23T01:28:24.583Z,0.48
2022-12-23T01:33:22.694Z,0.54
2022-12-23T01:38:22.067Z,0.51
2022-12-23T01:43:20.805Z,0.55
2022-12-23T01:48:20.184Z,0.64
2022-12-23T01:53:21.032Z,0.66
2022-12-23T01:58:22.381Z,0.58
2022-12-23T02:03:38.075Z,0.48
2022-12-23T02:08:58.701Z,0.50
2022-12-23T02:14:37.663Z,0.52
2022-12-23T02:19:55.043Z,0.36
2022-12-23T02:25:07.875Z,0.38
2022-12-23T02:30:27.174Z,0.39
2022-12-23T02:35:30.330Z,0.20
2022-12-23T02:40:34.615Z,0.31
2022-12-23T02:45:36.496Z,0.26
2022-12-23T02:50:37.938Z,0.32
2022-12-23T02:55:37.469Z,0.36
2022-12-23T03:00:36.048Z,0.29
2022-12-23T03:05:39.190Z,0.24
2022-12-23T03:10:42.828Z,0.31
2022-12-23T03:15:48.250Z,0.38
2022-12-23T03:20:52.771Z,0.39
2022-12-23T03:25:56.071Z,0.38
2022-12-23T03:30:56.203Z,0.34
2022-12-23T03:35:58.179Z,0.40
2022-12-23T03:40:58.671Z,0.45
2022-12-23T03:45:59.619Z,0.40
2022-12-23T03:51:01.118Z,0.41
2022-12-23T03:56:02.942Z,0.49
2022-12-23T04:01:05.591Z,0.50
2022-12-23T04:06:07.222Z,0.49
2022-12-23T04:11:05.564Z,0.57
2022-12-23T04:16:04.120Z,0.62
2022-12-23T04:21:02.196Z,0.66
2022-12-23T04:26:01.471Z,0.63
2022-12-23T04:30:59.441Z,0.51
2022-12-23T04:35:57.358Z,0.56
2022-12-23T04:40:55.212Z,0.53
2022-12-23T04:45:54.534Z,0.56
2022-12-23T04:50:52.437Z,0.50
2022-12-23T04:55:51.263Z,0.37
2022-12-23T05:00:49.310Z,0.39
2022-12-23T05:05:48.676Z,0.52
2022-12-23T05:10:46.689Z,0.55
2022-12-23T05:15:45.052Z,0.60
2022-12-23T05:20:42.933Z,0.59
2022-12-23T05:25:42.299Z,0.74
2022-12-23T05:30:40.204Z,0.55
2022-12-23T05:35:38.161Z,0.72
2022-12-23T05:40:36.085Z,0.64
2022-12-23T05:45:39.280Z,0.63
2022-12-23T05:50:37.376Z,0.50
2022-12-23T05:55:35.552Z,0.53
2022-12-23T06:00:33.481Z,0.62
2022-12-23T06:05:32.727Z,0.84
2022-12-23T06:10:30.748Z,0.81
2022-12-23T06:15:28.760Z,0.88
2022-12-23T06:20:26.681Z,0.96
2022-12-23T06:25:25.937Z,1.04
2022-12-23T06:30:23.932Z,1.06
2022-12-23T06:35:21.783Z,1.17
2022-12-23T06:40:19.842Z,1.13
2022-12-23T06:45:19.188Z,1.31
2022-12-23T06:50:17.094Z,1.53
2022-12-23T06:55:15.170Z,1.37
2022-12-23T07:00:13.944Z,1.29
2022-12-23T07:05:13.236Z,1.45
2022-12-23T07:10:11.254Z,1.68
2022-12-23T07:15:10.070Z,1.92
2022-12-23T07:20:08.728Z,2.04
2022-12-23T07:25:08.836Z,2.24
2022-12-23T07:30:07.560Z,2.96
2022-12-23T07:35:05.970Z,3.45
2022-12-23T07:40:08.498Z,3.71
2022-12-23T07:45:09.147Z,3.83
2022-12-23T07:50:07.698Z,3.79
2022-12-23T07:55:06.569Z,3.63
2022-12-23T08:00:04.933Z,3.42
2022-12-23T08:05:11.746Z,3.16
2022-12-23T08:10:10.155Z,3.17
2022-12-23T08:15:08.707Z,3.68
2022-12-23T08:20:07.317Z,4.69
2022-12-23T08:25:06.899Z,5.10
2022-12-23T08:30:04.929Z,5.69
2022-12-23T08:35:02.743Z,5.45
2022-12-23T08:40:00.539Z,5.61
2022-12-23T08:45:01.157Z,5.72
2022-12-23T08:49:59.211Z,7.53
2022-12-23T08:54:57.079Z,9.23
2022-12-23T08:59:54.889Z,7.71
2022-12-23T09:04:54.275Z,6.74
2022-12-23T09:09:52.609Z,8.19
2022-12-23T09:14:50.522Z,7.89
2022-12-23T09:19:52.654Z,7.20
2022-12-23T09:24:52.396Z,7.64
2022-12-23T09:29:50.247Z,9.27
2022-12-23T09:34:48.160Z,8.84
2022-12-23T09:39:46.042Z,7.79
2022-12-23T09:44:50.763Z,7.46
2022-12-23T09:49:50.965Z,7.61
2022-12-23T09:54:51.588Z,7.86
2022-12-23T09:59:59.619Z,9.40
2022-12-23T10:05:04.371Z,8.98
2022-12-23T10:10:07.196Z,9.36
2022-12-23T10:15:16.551Z,9.79
2022-12-23T10:20:18.276Z,9.30
2022-12-23T10:25:16.983Z,8.82
2022-12-23T10:30:51.310Z,7.98
2022-12-23T10:35:43.699Z,8.01
2022-12-23T10:40:50.429Z,7.86
2022-12-23T10:45:52.651Z,7.71
2022-12-23T10:50:59.248Z,8.16
2022-12-23T10:55:58.224Z,8.21
2022-12-23T11:00:57.435Z,7.99
2022-12-23T11:05:57.692Z,7.16
2022-12-23T11:10:56.200Z,7.03
2022-12-23T11:15:54.098Z,7.48
2022-12-23T11:21:06.917Z,7.53
2022-12-23T11:26:06.092Z,7.08
2022-12-23T11:31:08.766Z,7.13
2022-12-23T11:36:09.719Z,7.32
2022-12-23T11:41:08.967Z,7.32
2022-12-23T11:46:25.263Z,7.03
2022-12-23T11:51:28.008Z,6.60
2022-12-23T11:56:27.482Z,6.84
2022-12-23T12:01:26.285Z,7.55
2022-12-23T12:06:24.368Z,7.67
2022-12-23T12:11:28.735Z,7.71
2022-12-23T12:16:48.197Z,7.40
2022-12-23T12:21:49.440Z,7.97
2022-12-23T12:26:51.512Z,8.28
2022-12-23T12:31:51.973Z,7.90
2022-12-23T12:36:54.063Z,8.09
2022-12-23T12:42:01.766Z,7.97
2022-12-23T12:47:27.892Z,8.00
2022-12-23T12:52:26.728Z,8.07
2022-12-23T12:57:26.290Z,8.12
2022-12-23T13:02:29.723Z,7.96
2022-12-23T13:07:33.249Z,7.84
2022-12-23T13:12:39.638Z,8.13
2022-12-23T13:17:40.152Z,8.15
2022-12-23T13:22:38.706Z,7.48
2022-12-23T13:27:41.767Z,7.67
2022-12-23T13:32:53.278Z,7.78
2022-12-23T13:37:56.782Z,7.77
2022-12-23T13:42:59.353Z,7.94
2022-12-23T13:48:05.552Z,7.78
2022-12-23T13:53:11.543Z,7.64
2022-12-23T13:58:12.720Z,7.72
2022-12-23T14:03:23.905Z,7.66
2022-12-23T14:08:32.389Z,7.64
2022-12-23T14:13:35.353Z,7.70
2022-12-23T14:18:39.830Z,7.55
2022-12-23T14:23:47.438Z,7.58
2022-12-23T14:28:57.488Z,7.56
2022-12-23T14:34:03.056Z,7.48
2022-12-23T14:39:19.875Z,7.48
2022-12-23T14:44:43.834Z,7.49
2022-12-23T14:49:44.081Z,7.48
2022-12-23T14:54:55.266Z,7.47
2022-12-23T15:00:02.736Z,7.43
2022-12-23T15:05:01.268Z,7.36
2022-12-23T15:10:01.600Z,7.39
2022-12-23T15:15:02.400Z,7.36
2022-12-23T15:20:13.167Z,7.32
2022-12-23T15:25:21.218Z,7.24
2022-12-23T15:30:20.907Z,7.27
2022-12-23T15:35:20.632Z,7.16
2022-12-23T15:40:25.626Z,7.15
2022-12-23T15:45:33.901Z,7.18
2022-12-23T15:50:32.240Z,7.20
2022-12-23T15:55:31.643Z,7.17
2022-12-23T16:00:32.867Z,7.11
2022-12-23T16:05:33.454Z,7.12
2022-12-23T16:10:31.392Z,7.14
2022-12-23T16:15:30.547Z,7.10
2022-12-23T16:20:28.597Z,7.14
2022-12-23T16:25:31.399Z,7.10
2022-12-23T16:30:32.195Z,7.03
2022-12-23T16:35:36.042Z,7.06
2022-12-23T16:40:35.791Z,7.07
2022-12-23T16:45:34.694Z,7.07
2022-12-23T16:50:32.730Z,7.10
2022-12-23T16:55:30.649Z,7.07
2022-12-23T17:00:29.870Z,7.03
2022-12-23T17:05:27.945Z,7.04
2022-12-23T17:10:26.284Z,7.04
2022-12-23T17:15:25.752Z,6.92
2022-12-23T17:20:25.835Z,6.88
2022-12-23T17:25:26.777Z,6.69
2022-12-23T17:30:25.642Z,6.46
2022-12-23T17:35:26.288Z,6.18
2022-12-23T17:40:24.581Z,5.93
2022-12-23T17:45:25.658Z,5.73
2022-12-23T17:50:24.072Z,5.48
2022-12-23T17:55:24.285Z,5.26
2022-12-23T18:00:31.998Z,5.01
2022-12-23T18:05:33.088Z,4.84
2022-12-23T18:10:37.329Z,4.66
2022-12-23T18:15:36.304Z,4.57
2022-12-23T18:20:34.336Z,4.46
2022-12-23T18:25:33.780Z,4.31
2022-12-23T18:30:31.690Z,4.25
2022-12-23T18:35:30.406Z,4.16
2022-12-23T18:40:32.698Z,4.12
2022-12-23T18:45:34.943Z,4.03
2022-12-23T18:50:33.852Z,3.96
2022-12-23T18:55:31.935Z,3.89
2022-12-23T19:00:33.865Z,3.83
2022-12-23T19:05:33.245Z,3.77
2022-12-23T19:10:33.527Z,3.69
2022-12-23T19:15:32.513Z,3.65
2022-12-23T19:20:32.686Z,3.59
2022-12-23T19:25:30.576Z,3.39
2022-12-23T19:30:28.813Z,3.42
2022-12-23T19:35:27.281Z,3.37
2022-12-23T19:40:26.602Z,3.32
2022-12-23T19:45:24.561Z,3.29
2022-12-23T19:50:22.584Z,3.08
2022-12-23T19:55:20.675Z,2.89
2022-12-23T20:00:20.392Z,3.01
2022-12-23T20:05:18.564Z,3.02
2022-12-23T20:10:16.429Z,2.99
2022-12-23T20:15:14.583Z,2.95
2022-12-23T20:20:14.349Z,2.94
2022-12-23T20:25:12.331Z,2.94
2022-12-23T20:30:11.988Z,2.89
2022-12-23T20:35:10.389Z,2.84
2022-12-23T20:40:13.287Z,2.79
2022-12-23T20:45:12.035Z,2.83
2022-12-23T20:50:10.237Z,2.78
2022-12-23T20:55:10.580Z,2.76
2022-12-23T21:00:11.392Z,2.77
2022-12-23T21:05:10.394Z,2.84
2022-12-23T21:10:11.562Z,2.80
2022-12-23T21:15:10.381Z,2.86
2022-12-23T21:20:09.671Z,2.84
2022-12-23T21:25:11.529Z,2.86
2022-12-23T21:30:12.930Z,2.78
2022-12-23T21:35:11.306Z,2.74
2022-12-23T21:40:12.399Z,2.74
2022-12-23T21:45:11.207Z,2.71
2022-12-23T21:50:10.472Z,2.64
2022-12-23T21:55:09.477Z,2.55
2022-12-23T22:00:11.183Z,2.43
2022-12-23T22:05:09.948Z,2.38
2022-12-23T22:10:08.920Z,2.40
2022-12-23T22:15:11.462Z,2.41
2022-12-23T22:20:12.415Z,2.39
2022-12-23T22:25:11.218Z,2.45
2022-12-23T22:30:10.512Z,2.49
2022-12-23T22:35:08.901Z,2.43
2022-12-23T22:40:09.289Z,2.31
2022-12-23T22:45:09.371Z,2.27
2022-12-23T22:50:08.487Z,2.20
2022-12-23T22:55:07.029Z,2.24
2022-12-23T23:00:12.247Z,2.22
2022-12-23T23:05:13.195Z,2.22
2022-12-23T23:10:11.762Z,2.22
2022-12-23T23:15:11.830Z,2.28
2022-12-23T23:20:10.816Z,2.43
2022-12-23T23:25:09.147Z,2.46
2022-12-23T23:30:08.797Z,2.39
2022-12-23T23:35:10.849Z,2.36
2022-12-23T23:40:09.810Z,2.30
2022-12-23T23:45:13.975Z,2.37
2022-12-23T23:50:19.133Z,2.36
2022-12-23T23:55:17.923Z,2.41
